Time;durP1;ratioP1;P1;durP2;ratioP2;P2;SDS_P1;SDS_P2;PMS_P1;PMS_P2;Temp;Humidity;BMP_temperature;BMP_pressure;BME280_temperature;BME280_humidity;BME280_pressure;Samples;Min_cycle;Max_cycle;Signal;HPM_P1;HPM_P2
2022/10/19 00:00:39;;;;;;;79.03;26.63;;;11.40;1.00;;;;;;6246448;23;20180;-93
2022/10/19 00:03:09;;;;;;;78.70;26.60;;;11.30;1.00;;;;;;6247452;23;20160;-91
2022/10/19 00:05:36;;;;;;;77.23;26.50;;;11.30;1.00;;;;;;6247219;23;20162;-92
2022/10/19 00:08:04;;;;;;;75.57;26.20;;;11.30;1.00;;;;;;6246990;22;20192;-92
2022/10/19 00:10:31;;;;;;;76.43;26.43;;;11.30;1.00;;;;;;6247114;22;20587;-90
2022/10/19 00:12:58;;;;;;;74.20;25.97;;;11.30;1.00;;;;;;6246852;22;20167;-92
2022/10/19 00:15:25;;;;;;;72.50;25.70;;;11.20;1.00;;;;;;6247309;22;20210;-92
2022/10/19 00:17:52;;;;;;;73.10;26.10;;;11.30;1.00;;;;;;6246775;22;20615;-91
2022/10/19 00:20:21;;;;;;;71.67;25.37;;;11.20;1.00;;;;;;6246820;22;20187;-93
2022/10/19 00:22:52;;;;;;;70.60;25.40;;;11.20;1.00;;;;;;6246806;22;20244;-91
2022/10/19 00:25:19;;;;;;;72.47;26.00;;;11.20;1.00;;;;;;6247347;23;20152;-92
2022/10/19 00:27:47;;;;;;;74.10;26.03;;;11.20;1.00;;;;;;6246758;22;20238;-93
2022/10/19 00:30:16;;;;;;;71.33;25.60;;;11.20;1.00;;;;;;6246956;22;20156;-93
2022/10/19 00:32:43;;;;;;;73.73;25.87;;;11.20;1.00;;;;;;6247096;22;20244;-92
2022/10/19 00:35:30;;;;;;;74.03;26.10;;;11.20;1.00;;;;;;6247308;22;20164;-91
2022/10/19 00:37:58;;;;;;;71.80;25.70;;;11.20;1.00;;;;;;6246877;23;20160;-93
2022/10/19 00:40:26;;;;;;;70.57;25.40;;;11.20;1.00;;;;;;6246615;22;20176;-91
2022/10/19 00:42:55;;;;;;;70.03;25.40;;;11.20;1.00;;;;;;6246837;22;20192;-93
2022/10/19 00:45:23;;;;;;;69.70;25.40;;;11.10;1.00;;;;;;6247032;22;20164;-92
2022/10/19 00:47:50;;;;;;;69.03;25.30;;;11.10;1.00;;;;;;6246556;22;20166;-92
2022/10/19 00:50:18;;;;;;;69.13;25.23;;;11.10;1.00;;;;;;6246472;22;20160;-92
2022/10/19 00:52:46;;;;;;;105.43;29.83;;;11.10;1.00;;;;;;6246611;22;20164;-93
2022/10/19 00:55:15;;;;;;;117.07;31.37;;;11.10;1.00;;;;;;6247026;22;20179;-93
2022/10/19 00:57:42;;;;;;;106.17;30.27;;;11.10;1.00;;;;;;6246365;22;20186;-92
2022/10/19 01:00:10;;;;;;;101.47;29.90;;;11.10;1.00;;;;;;6246484;22;20266;-93
2022/10/19 01:02:37;;;;;;;99.80;29.60;;;11.10;1.00;;;;;;6246652;22;20478;-91
2022/10/19 01:05:06;;;;;;;99.93;29.60;;;11.10;1.00;;;;;;6246456;22;20160;-91
2022/10/19 01:07:33;;;;;;;99.10;29.57;;;11.10;1.00;;;;;;6246128;22;20247;-92
2022/10/19 01:10:01;;;;;;;96.87;29.10;;;11.10;1.00;;;;;;6246492;23;20147;-91
2022/10/19 01:12:46;;;;;;;94.40;28.93;;;11.10;1.00;;;;;;6246183;22;20170;-92
2022/10/19 01:15:23;;;;;;;91.80;28.23;;;11.10;1.00;;;;;;6246551;23;20159;-91
2022/10/19 01:17:59;;;;;;;94.47;29.10;;;11.10;1.00;;;;;;6246322;23;20162;-92
2022/10/19 01:21:03;;;;;;;97.53;29.57;;;11.10;1.00;;;;;;6245676;23;20179;-92
2022/10/19 01:24:01;;;;;;;93.83;28.83;;;11.10;1.00;;;;;;6246173;23;20177;-92
2022/10/19 01:27:04;;;;;;;95.10;28.73;;;11.10;1.00;;;;;;6246298;23;20182;-92
2022/10/19 01:29:54;;;;;;;97.83;29.43;;;11.10;1.00;;;;;;6240768;23;20160;-92
2022/10/19 01:32:26;;;;;;;97.20;29.30;;;11.10;1.00;;;;;;6245750;23;20163;-92
2022/10/19 01:35:03;;;;;;;93.43;28.53;;;11.10;1.00;;;;;;6246253;23;20156;-91
2022/10/19 01:37:38;;;;;;;92.97;28.43;;;11.10;1.00;;;;;;6245702;23;20140;-91
2022/10/19 01:40:12;;;;;;;93.27;28.47;;;11.10;1.00;;;;;;6245966;23;20510;-91
2022/10/19 01:42:45;;;;;;;94.77;28.93;;;11.10;1.00;;;;;;6246077;23;20148;-90
2022/10/19 01:45:17;;;;;;;94.90;29.20;;;11.10;1.00;;;;;;6246433;23;20160;-92
2022/10/19 01:47:50;;;;;;;90.13;28.33;;;11.10;1.00;;;;;;6246036;23;20209;-93
2022/10/19 01:50:24;;;;;;;93.97;28.97;;;11.10;1.00;;;;;;6245972;23;20227;-93
2022/10/19 01:52:53;;;;;;;90.33;28.47;;;11.10;99.90;;;;;;6245967;23;20163;-92
2022/10/19 01:55:21;;;;;;;90.20;28.53;;;11.10;99.90;;;;;;6245725;23;20467;-91
2022/10/19 01:57:53;;;;;;;92.53;28.77;;;11.10;99.90;;;;;;6245932;23;20174;-92
2022/10/19 02:00:23;;;;;;;91.27;28.73;;;11.10;99.90;;;;;;6245202;23;20501;-91
2022/10/19 02:02:53;;;;;;;90.03;28.47;;;11.10;99.90;;;;;;6246060;23;20184;-91
2022/10/19 02:05:24;;;;;;;90.97;28.57;;;11.00;99.90;;;;;;6245341;23;20160;-92
2022/10/19 02:07:58;;;;;;;90.57;28.23;;;11.00;99.90;;;;;;6245641;23;20195;-91
2022/10/19 02:10:26;;;;;;;90.40;28.27;;;11.00;99.90;;;;;;6245354;23;20171;-91
2022/10/19 02:12:55;;;;;;;90.97;28.47;;;11.00;99.90;;;;;;6245962;23;20164;-91
2022/10/19 02:15:26;;;;;;;88.93;27.97;;;11.00;99.90;;;;;;6245717;22;20156;-92
2022/10/19 02:17:58;;;;;;;90.60;28.47;;;11.00;99.90;;;;;;6245669;23;20219;-92
2022/10/19 02:20:27;;;;;;;89.23;28.23;;;11.00;99.90;;;;;;6245625;23;20265;-91
2022/10/19 02:22:54;;;;;;;554.77;233.40;;;11.00;99.90;;;;;;6245931;22;20164;-93
2022/10/19 02:25:22;;;;;;;614.87;259.13;;;11.00;99.90;;;;;;6245594;22;20485;-90
2022/10/19 02:27:50;;;;;;;653.80;243.27;;;11.00;99.90;;;;;;6245507;23;20163;-91
2022/10/19 02:30:21;;;;;;;645.03;230.23;;;11.00;99.90;;;;;;6245542;22;20169;-90
2022/10/19 02:32:50;;;;;;;641.83;207.20;;;11.00;51.50;;;;;;6246059;23;20171;-92
2022/10/19 02:35:18;;;;;;;87.17;82.47;;;11.00;1.00;;;;;;6245633;23;20163;-91
2022/10/19 02:37:45;;;;;;;96.03;90.97;;;11.00;1.00;;;;;;6245443;22;20239;-91
2022/10/19 02:40:14;;;;;;;100.07;94.67;;;10.90;99.90;;;;;;6245495;23;20246;-91
2022/10/19 02:42:45;;;;;;;106.33;100.80;;;10.90;99.90;;;;;;6245461;22;20163;-90
2022/10/19 02:45:18;;;;;;;102.27;96.97;;;10.90;99.90;;;;;;6245457;23;20459;-91
2022/10/19 02:47:51;;;;;;;119.67;112.63;;;10.90;50.30;;;;;;6245477;23;20150;-90
2022/10/19 02:50:19;;;;;;;116.63;110.63;;;10.90;1.00;;;;;;6245596;23;20167;-90
2022/10/19 02:52:47;;;;;;;122.37;116.13;;;10.90;1.00;;;;;;6245999;23;20160;-90
2022/10/19 02:55:14;;;;;;;123.90;117.20;;;10.90;1.00;;;;;;6245745;22;20649;-91
2022/10/19 02:57:41;;;;;;;126.73;120.13;;;10.90;1.00;;;;;;6245417;23;20171;-92
2022/10/19 03:00:10;;;;;;;126.00;119.53;;;10.90;1.00;;;;;;6245587;22;20235;-91
2022/10/19 03:02:37;;;;;;;125.03;118.40;;;10.90;1.00;;;;;;6245753;23;20167;-91
2022/10/19 03:05:08;;;;;;;128.90;122.23;;;10.90;1.00;;;;;;6246717;23;20166;-91
2022/10/19 03:07:36;;;;;;;124.97;118.53;;;10.90;1.00;;;;;;6247418;22;20200;-91
2022/10/19 03:10:03;;;;;;;123.83;117.53;;;10.90;1.00;;;;;;6247673;23;20171;-91
2022/10/19 03:12:30;;;;;;;116.53;110.57;;;10.90;1.00;;;;;;6247566;23;20164;-91
2022/10/19 03:14:57;;;;;;;118.43;112.40;;;10.90;99.90;;;;;;6247701;23;20234;-91
2022/10/19 03:17:24;;;;;;;110.33;104.67;;;10.90;99.90;;;;;;6246852;22;20166;-91
2022/10/19 03:19:51;;;;;;;106.43;101.00;;;10.90;99.90;;;;;;6246811;22;20171;-92
2022/10/19 03:22:20;;;;;;;116.53;110.63;;;10.90;99.90;;;;;;6247457;22;20187;-92
2022/10/19 03:24:47;;;;;;;114.13;108.13;;;10.80;99.90;;;;;;6248120;23;20595;-91
2022/10/19 03:27:15;;;;;;;108.37;102.73;;;10.90;99.90;;;;;;6247755;22;20167;-92
2022/10/19 03:29:42;;;;;;;107.17;101.60;;;10.90;99.90;;;;;;6247673;23;20159;-92
2022/10/19 03:32:09;;;;;;;101.87;96.70;;;10.80;1.00;;;;;;6247360;23;20163;-92
2022/10/19 03:34:36;;;;;;;97.30;92.30;;;10.80;1.00;;;;;;6247399;23;20163;-91
2022/10/19 03:37:03;;;;;;;83.67;79.37;;;10.80;1.00;;;;;;6246996;23;20500;-91
2022/10/19 03:39:32;;;;;;;75.87;71.17;;;10.80;99.90;;;;;;6247015;23;20649;-92
2022/10/19 03:41:59;;;;;;;71.27;66.20;;;10.80;99.90;;;;;;6247348;22;20183;-92
2022/10/19 03:44:26;;;;;;;65.03;60.00;;;10.80;99.90;;;;;;6247508;23;20247;-90
2022/10/19 03:46:53;;;;;;;90.90;86.07;;;10.80;99.90;;;;;;6247006;23;20163;-91
2022/10/19 03:49:20;;;;;;;102.33;97.23;;;10.80;99.90;;;;;;6247119;23;20217;-91
2022/10/19 03:51:47;;;;;;;103.47;98.33;;;10.80;99.90;;;;;;6247300;23;20190;-91
2022/10/19 03:54:16;;;;;;;86.60;81.87;;;10.80;1.00;;;;;;6246757;23;20478;-90
2022/10/19 03:56:45;;;;;;;92.57;87.43;;;10.80;1.00;;;;;;6246848;23;20160;-91
2022/10/19 03:59:14;;;;;;;105.20;100.03;;;10.70;99.90;;;;;;6246999;23;20164;-91
2022/10/19 04:01:44;;;;;;;86.07;81.30;;;10.70;99.90;;;;;;6247022;22;20210;-91
2022/10/19 04:04:14;;;;;;;81.77;76.97;;;10.60;99.90;;;;;;6246690;23;20164;-91
2022/10/19 04:06:42;;;;;;;85.00;79.80;;;10.60;99.90;;;;;;6247104;23;20164;-90
2022/10/19 04:09:12;;;;;;;83.97;78.27;;;10.60;99.90;;;;;;6247147;22;20216;-91
2022/10/19 04:11:40;;;;;;;86.70;80.47;;;10.60;1.00;;;;;;6247150;23;20144;-91
2022/10/19 04:14:11;;;;;;;104.17;98.33;;;10.60;1.00;;;;;;6247161;23;20618;-90
2022/10/19 04:16:38;;;;;;;105.00;99.83;;;10.60;1.00;;;;;;6245908;23;20151;-91
2022/10/19 04:19:05;;;;;;;105.63;100.47;;;10.60;1.00;;;;;;6246949;22;20160;-91
2022/10/19 04:21:34;;;;;;;112.13;106.53;;;10.60;1.00;;;;;;6247129;22;20175;-91
2022/10/19 04:24:04;;;;;;;106.23;101.03;;;10.60;99.90;;;;;;6246793;23;20210;-92
2022/10/19 04:26:32;;;;;;;105.20;99.87;;;10.50;1.00;;;;;;6246838;23;20171;-91
2022/10/19 04:29:00;;;;;;;81.33;74.37;;;10.50;1.00;;;;;;6247340;22;20629;-89
2022/10/19 04:31:29;;;;;;;93.80;88.17;;;10.50;1.00;;;;;;6247286;23;20167;-91
2022/10/19 04:33:57;;;;;;;90.60;85.67;;;10.50;1.00;;;;;;6246851;23;20167;-91
2022/10/19 04:36:24;;;;;;;95.90;90.87;;;10.50;1.00;;;;;;6246481;23;20160;-91
2022/10/19 04:38:52;;;;;;;94.43;89.47;;;10.50;1.00;;;;;;6246882;23;20160;-91
2022/10/19 04:41:21;;;;;;;87.43;82.67;;;10.50;27.70;;;;;;6247070;22;20203;-91
2022/10/19 04:43:48;;;;;;;90.47;85.20;;;10.50;99.90;;;;;;6246675;23;20178;-90
2022/10/19 04:46:17;;;;;;;84.93;80.07;;;10.50;99.90;;;;;;6246937;23;20529;-91
2022/10/19 04:48:46;;;;;;;86.13;80.83;;;10.50;99.90;;;;;;6246741;22;20160;-91
2022/10/19 04:51:14;;;;;;;91.03;85.53;;;10.50;99.90;;;;;;6246559;23;20642;-91
2022/10/19 04:53:43;;;;;;;88.73;83.50;;;10.40;99.90;;;;;;6246655;23;20168;-90
2022/10/19 04:56:13;;;;;;;96.13;90.13;;;10.40;99.90;;;;;;6247073;22;20160;-91
2022/10/19 04:58:40;;;;;;;81.50;75.73;;;10.40;1.00;;;;;;6246494;23;20575;-90
2022/10/19 05:01:08;;;;;;;79.60;73.67;;;10.30;1.00;;;;;;6246150;23;20184;-90
2022/10/19 05:03:36;;;;;;;83.03;74.80;;;10.20;1.00;;;;;;6247108;23;20192;-91
2022/10/19 05:06:04;;;;;;;73.63;67.53;;;10.20;1.00;;;;;;6247728;23;20167;-90
2022/10/19 05:08:32;;;;;;;70.43;63.27;;;10.10;1.00;;;;;;6245798;23;20192;-88
2022/10/19 05:11:02;;;;;;;69.90;62.80;;;10.10;1.00;;;;;;6246277;22;20499;-89
2022/10/19 05:13:29;;;;;;;70.80;54.10;;;10.10;99.90;;;;;;6245592;23;20152;-89
2022/10/19 05:15:57;;;;;;;89.73;62.73;;;10.10;1.00;;;;;;6245928;22;20156;-88
2022/10/19 05:18:24;;;;;;;85.57;60.70;;;10.20;1.00;;;;;;6245630;22;20172;-88
2022/10/19 05:20:51;;;;;;;92.80;47.83;;;10.20;1.00;;;;;;6245800;22;20170;-89
2022/10/19 05:23:20;;;;;;;94.67;57.70;;;10.20;99.90;;;;;;6245594;23;20179;-89
2022/10/19 05:25:47;;;;;;;68.20;57.53;;;10.20;99.90;;;;;;6245468;23;20160;-89
2022/10/19 05:28:14;;;;;;;86.43;58.97;;;10.30;99.90;;;;;;6245529;22;20475;-89
2022/10/19 05:30:41;;;;;;;84.47;56.80;;;10.30;99.90;;;;;;6245561;22;20174;-89
2022/10/19 05:33:08;;;;;;;86.63;57.50;;;10.30;99.90;;;;;;6246610;23;20171;-89
2022/10/19 05:35:35;;;;;;;83.10;58.13;;;10.30;99.90;;;;;;6246448;23;20166;-89
2022/10/19 05:38:02;;;;;;;76.63;49.23;;;10.30;1.00;;;;;;6246440;22;20160;-88
2022/10/19 05:40:31;;;;;;;92.97;43.30;;;10.40;1.00;;;;;;6246229;23;20168;-89
2022/10/19 05:42:58;;;;;;;89.90;42.27;;;10.40;1.00;;;;;;6246241;23;20180;-90
2022/10/19 05:45:25;;;;;;;73.47;50.10;;;10.40;1.00;;;;;;6246226;23;20167;-90
2022/10/19 05:47:52;;;;;;;115.83;36.00;;;10.40;1.00;;;;;;6246431;23;20468;-89
2022/10/19 05:50:19;;;;;;;90.93;46.80;;;10.50;1.00;;;;;;6245643;23;20630;-88
2022/10/19 05:52:46;;;;;;;68.77;60.03;;;10.50;1.00;;;;;;6245445;23;20167;-89
2022/10/19 05:55:13;;;;;;;113.63;29.67;;;10.50;1.00;;;;;;6245444;22;20164;-89
2022/10/19 05:57:45;;;;;;;140.27;34.50;;;10.50;1.00;;;;;;6252373;23;20171;-90
2022/10/19 06:00:21;;;;;;;136.30;33.90;;;10.50;1.00;;;;;;6272275;23;20197;-89
2022/10/19 06:06:23;;;;;;;128.83;32.83;;;10.60;1.00;;;;;;6254939;22;20208;-89
2022/10/19 06:09:11;;;;;;;129.93;32.73;;;10.70;1.00;;;;;;6271366;22;20179;-91
2022/10/19 06:11:46;;;;;;;130.40;33.20;;;10.60;1.00;;;;;;6271887;23;20151;-92
2022/10/19 06:14:36;;;;;;;129.70;32.87;;;10.70;1.00;;;;;;6271322;23;20155;-90
2022/10/19 06:17:41;;;;;;;129.70;33.03;;;10.70;1.00;;;;;;6271350;22;20163;-90
2022/10/19 06:20:39;;;;;;;130.93;33.43;;;10.80;1.00;;;;;;6271782;22;20164;-91
2022/10/19 06:23:29;;;;;;;;;;;;;;;;;;;;;
2022/10/19 06:26:30;;;;;;;;;;;;;;;;;;;;;
2022/10/19 06:29:14;;;;;;;129.43;32.87;;;10.90;1.00;;;;;;6272057;23;20247;-91
2022/10/19 06:32:11;;;;;;;129.20;32.43;;;10.90;1.00;;;;;;6272022;23;20167;-91
2022/10/19 06:34:52;;;;;;;131.70;33.37;;;10.80;1.00;;;;;;6271517;23;20179;-90
2022/10/19 06:37:30;;;;;;;130.70;32.77;;;10.80;1.00;;;;;;6271426;22;20243;-90
2022/10/19 06:40:01;;;;;;;128.63;33.00;;;10.80;1.00;;;;;;6272464;23;20159;-91
2022/10/19 06:42:42;;;;;;;127.87;32.90;;;10.80;1.00;;;;;;6274029;23;20198;-89
2022/10/19 06:45:41;;;;;;;128.00;33.00;;;10.80;1.00;;;;;;6273796;23;20156;-90
2022/10/19 06:48:27;;;;;;;125.33;32.47;;;10.70;1.00;;;;;;6261481;23;20167;-91
2022/10/19 06:51:10;;;;;;;123.93;31.80;;;10.80;1.00;;;;;;6273662;23;20179;-89
2022/10/19 06:56:27;;;;;;;120.03;31.43;;;10.90;1.00;;;;;;6263256;23;20164;-90
2022/10/19 06:59:07;;;;;;;119.43;31.58;;;10.90;1.00;;;;;;6273734;23;20156;-91
2022/10/19 07:01:35;;;;;;;119.57;31.50;;;11.00;1.00;;;;;;6273360;23;20184;-90
2022/10/19 07:04:12;;;;;;;118.37;31.67;;;11.00;1.00;;;;;;6273647;22;20171;-89
2022/10/19 07:06:45;;;;;;;115.13;31.08;;;11.10;1.00;;;;;;6273088;23;20215;-89
2022/10/19 07:12:22;;;;;;;116.20;30.92;;;11.30;27.20;;;;;;6271240;22;20156;-90
2022/10/19 07:15:04;;;;;;;117.15;31.25;;;11.40;35.70;;;;;;6273747;22;20207;-91
2022/10/19 07:17:48;;;;;;;119.23;31.83;;;11.40;45.30;;;;;;6273231;23;20191;-89
2022/10/19 07:20:26;;;;;;;114.38;31.05;;;11.50;1.00;;;;;;6267905;23;20167;-91
2022/10/19 07:22:54;;;;;;;109.82;30.38;;;11.50;1.00;;;;;;6273763;23;20230;-92
2022/10/19 07:25:33;;;;;;;109.22;30.45;;;11.60;1.00;;;;;;6273253;22;20224;-93
2022/10/19 07:28:08;;;;;;;108.35;29.88;;;11.70;1.00;;;;;;6272575;23;20174;-90
2022/10/19 07:31:11;;;;;;;113.70;30.63;;;11.70;1.00;;;;;;6273321;23;20194;-89
2022/10/19 07:34:03;;;;;;;108.63;30.23;;;11.70;1.00;;;;;;6273632;23;20220;-92
2022/10/19 07:36:48;;;;;;;107.63;30.23;;;11.80;1.00;;;;;;6208805;22;20163;-92
2022/10/19 07:39:22;;;;;;;108.63;30.07;;;11.70;1.00;;;;;;6272906;23;20147;-90
2022/10/19 07:41:56;;;;;;;108.03;30.23;;;11.70;1.00;;;;;;6273725;23;20210;-91
2022/10/19 07:44:35;;;;;;;;;;;;;;;;;;;;;
2022/10/19 07:47:07;;;;;;;106.37;29.77;;;11.80;99.90;;;;;;6273176;23;20159;-89
2022/10/19 07:49:42;;;;;;;105.33;29.53;;;11.80;1.00;;;;;;6273500;23;20156;-90
2022/10/19 07:52:14;;;;;;;105.20;29.30;;;11.80;1.00;;;;;;6272812;23;20159;-91
2022/10/19 07:55:02;;;;;;;104.87;29.43;;;11.90;1.00;;;;;;6272467;23;20160;-91
2022/10/19 07:57:30;;;;;;;103.28;29.35;;;11.90;1.00;;;;;;6272869;23;20160;-93
2022/10/19 07:59:58;;;;;;;104.50;29.70;;;11.90;1.00;;;;;;6273086;22;20159;-89
2022/10/19 08:02:26;;;;;;;103.30;29.33;;;12.00;1.00;;;;;;6273075;22;20188;-92
2022/10/19 08:04:57;;;;;;;102.60;29.23;;;12.10;1.00;;;;;;6272618;22;20174;-90
2022/10/19 08:07:36;;;;;;;105.57;29.90;;;12.10;1.00;;;;;;6272596;22;20160;-91
2022/10/19 08:10:05;;;;;;;105.17;29.37;;;12.20;1.00;;;;;;6272643;23;20160;-91
2022/10/19 08:12:36;;;;;;;102.33;29.20;;;12.40;99.90;;;;;;6272433;22;20170;-92
2022/10/19 08:15:11;;;;;;;101.03;28.97;;;12.50;99.90;;;;;;6272815;23;20182;-90
2022/10/19 08:17:45;;;;;;;101.50;29.17;;;12.60;1.00;;;;;;6273065;22;20171;-91
2022/10/19 08:20:20;;;;;;;101.77;29.37;;;12.70;1.00;;;;;;6272254;23;20163;-91
2022/10/19 08:22:49;;;;;;;100.23;29.03;;;12.70;1.00;;;;;;6272621;23;20239;-90
2022/10/19 08:25:19;;;;;;;95.70;28.07;;;12.70;1.00;;;;;;6272691;22;20164;-91
2022/10/19 08:27:55;;;;;;;101.13;29.30;;;12.70;99.90;;;;;;6272584;22;20160;-91
2022/10/19 08:30:27;;;;;;;101.87;29.10;;;12.70;1.00;;;;;;6272934;23;20164;-91
2022/10/19 08:32:59;;;;;;;99.18;28.52;;;12.70;99.90;;;;;;6272584;23;20208;-91
2022/10/19 08:35:32;;;;;;;103.80;29.07;;;12.80;99.90;;;;;;6273211;23;20208;-89
2022/10/19 08:38:07;;;;;;;97.32;28.65;;;13.00;99.90;;;;;;6272933;23;20171;-91
2022/10/19 08:40:40;;;;;;;98.28;28.80;;;13.10;1.00;;;;;;6272536;23;20172;-92
2022/10/19 08:43:16;;;;;;;95.95;28.50;;;13.10;99.90;;;;;;6272727;23;20179;-93
2022/10/19 08:46:01;;;;;;;111.07;30.40;;;13.30;99.90;;;;;;6272366;23;20163;-93
2022/10/19 08:48:35;;;;;;;;;;;14.20;1.00;;;;;;6272894;23;20036;-92
2022/10/19 08:51:14;;;;;;;124.50;30.60;;;15.50;1.00;;;;;;6272381;23;20199;-90
2022/10/19 08:53:52;;;;;;;60.72;55.78;;;16.70;1.00;;;;;;6272150;22;20347;-90
2022/10/19 08:56:28;;;;;;;55.63;51.53;;;17.40;1.00;;;;;;6272468;23;20222;-92
2022/10/19 08:59:09;;;;;;;57.08;41.55;;;17.70;99.90;;;;;;6271165;23;20169;-91
2022/10/19 09:01:45;;;;;;;59.15;30.40;;;17.40;1.00;;;;;;6271679;23;20160;-91
2022/10/19 09:04:22;;;;;;;69.57;24.20;;;17.00;1.00;;;;;;6272182;23;20183;-89
2022/10/19 09:07:22;;;;;;;82.82;25.10;;;16.70;99.90;;;;;;6272291;23;20238;-92
2022/10/19 09:10:05;;;;;;;87.30;23.27;;;16.50;99.90;;;;;;6271828;22;20263;-91
2022/10/19 09:12:40;;;;;;;94.40;25.80;;;16.40;99.90;;;;;;6250996;23;20170;-88
2022/10/19 09:15:12;;;;;;;109.40;28.13;;;16.30;91.30;;;;;;6245234;23;20605;-87
2022/10/19 09:17:39;;;;;;;129.77;31.40;;;16.10;29.70;;;;;;6245501;23;20232;-88
2022/10/19 09:23:40;;;;;;;144.60;35.03;;;15.60;1.00;;;;;;6160476;22;20190;-87
2022/10/19 09:26:29;;;;;;;149.77;35.83;;;15.30;1.00;;;;;;6251805;22;20159;-91
2022/10/19 09:29:03;;;;;;;146.73;35.67;;;15.20;1.00;;;;;;6272111;23;20174;-91
2022/10/19 09:31:33;;;;;;;147.23;35.42;;;15.00;1.00;;;;;;6256393;23;20159;-88
2022/10/19 09:34:05;;;;;;;141.48;34.15;;;14.90;1.00;;;;;;6245868;23;20164;-88
2022/10/19 09:39:35;;;;;;;136.68;33.80;;;14.60;16.80;;;;;;6269235;22;20219;-93
2022/10/19 09:42:22;;;;;;;134.98;33.47;;;14.40;1.00;;;;;;6272027;23;20160;-90
2022/10/19 09:44:55;;;;;;;133.53;33.37;;;14.20;3.00;;;;;;6271740;23;20152;-88
2022/10/19 09:47:54;;;;;;;132.30;33.35;;;14.10;1.00;;;;;;6271591;23;20190;-90
2022/10/19 09:50:31;;;;;;;132.90;33.03;;;14.00;25.60;;;;;;6253903;22;20191;-90
2022/10/19 09:53:21;;;;;;;132.32;33.22;;;14.00;72.80;;;;;;6272505;23;20152;-91
2022/10/19 09:55:59;;;;;;;129.50;32.53;;;14.00;99.90;;;;;;6271324;22;20158;-90
2022/10/19 09:58:34;;;;;;;127.97;32.10;;;14.00;99.90;;;;;;6271157;23;20160;-91
2022/10/19 10:01:10;;;;;;;124.80;31.38;;;14.10;99.90;;;;;;6271232;23;20159;-93
2022/10/19 10:03:42;;;;;;;123.20;31.65;;;14.10;99.90;;;;;;6270360;22;20239;-89
2022/10/19 10:06:24;;;;;;;120.13;31.05;;;14.10;99.90;;;;;;6271560;23;20163;-91
2022/10/19 10:08:58;;;;;;;122.60;31.83;;;14.20;99.90;;;;;;6271390;22;20196;-93
2022/10/19 10:11:42;;;;;;;123.60;31.67;;;14.30;99.90;;;;;;6271770;23;20159;-90
2022/10/19 10:14:40;;;;;;;125.97;32.70;;;14.40;99.90;;;;;;6271336;23;20144;-92
2022/10/19 10:17:19;;;;;;;129.60;33.22;;;14.60;99.90;;;;;;6271850;23;20144;-89
2022/10/19 10:20:07;;;;;;;129.70;33.08;;;14.90;1.00;;;;;;6271372;23;20160;-89
2022/10/19 10:22:40;;;;;;;127.53;32.70;;;14.90;1.00;;;;;;6271641;23;20239;-90
2022/10/19 10:25:16;;;;;;;126.30;32.97;;;14.70;1.00;;;;;;6271546;23;20235;-92
2022/10/19 10:27:57;;;;;;;125.03;32.70;;;14.50;1.00;;;;;;6271851;23;20164;-91
2022/10/19 10:30:31;;;;;;;126.78;32.70;;;14.50;1.00;;;;;;6271238;23;20162;-90
2022/10/19 10:33:06;;;;;;;127.45;32.80;;;14.60;1.00;;;;;;6271705;23;20160;-90
2022/10/19 10:35:41;;;;;;;125.78;32.42;;;14.80;1.00;;;;;;6271269;23;20190;-93
2022/10/19 10:38:18;;;;;;;124.07;32.55;;;15.00;1.00;;;;;;6271365;22;20159;-91
2022/10/19 10:41:09;;;;;;;121.30;32.08;;;15.10;1.00;;;;;;6271938;23;20166;-89
2022/10/19 10:43:50;;;;;;;119.43;31.65;;;15.10;1.00;;;;;;6271762;23;20184;-90
2022/10/19 10:46:29;;;;;;;121.28;31.88;;;15.00;1.00;;;;;;6270460;23;20575;-90
2022/10/19 10:49:04;;;;;;;112.22;30.75;;;15.00;1.00;;;;;;6271179;22;20208;-91
2022/10/19 10:51:42;;;;;;;112.32;30.73;;;14.80;1.00;;;;;;6271412;23;20165;-89
2022/10/19 10:54:24;;;;;;;119.78;31.77;;;14.80;1.00;;;;;;6271580;23;20156;-92
2022/10/19 10:57:16;;;;;;;119.57;31.75;;;14.70;1.00;;;;;;6271282;23;20167;-92
2022/10/19 11:00:04;;;;;;;119.45;31.92;;;14.70;1.00;;;;;;6271571;23;20144;-92
2022/10/19 11:02:40;;;;;;;119.32;31.35;;;14.60;1.00;;;;;;6271454;23;20167;-94
2022/10/19 11:05:21;;;;;;;117.70;31.65;;;14.50;1.00;;;;;;6271221;23;20152;-89
2022/10/19 11:07:53;;;;;;;115.43;31.33;;;14.50;1.00;;;;;;6270431;22;20156;-89
2022/10/19 11:10:30;;;;;;;116.40;31.65;;;14.60;1.00;;;;;;6270578;23;20186;-90
2022/10/19 11:13:13;;;;;;;115.57;31.47;;;14.60;1.00;;;;;;6271639;23;20136;-92
2022/10/19 11:15:56;;;;;;;115.03;31.38;;;14.60;1.00;;;;;;6271399;23;20155;-90
2022/10/19 11:18:38;;;;;;;113.75;31.13;;;14.70;1.00;;;;;;6271154;23;20168;-89
2022/10/19 11:21:10;;;;;;;113.80;31.17;;;14.60;1.00;;;;;;6270772;23;20171;-89
2022/10/19 11:24:06;;;;;;;112.68;31.10;;;14.70;1.00;;;;;;6271303;23;20168;-91
2022/10/19 11:26:57;;;;;;;113.55;31.08;;;14.70;1.00;;;;;;6273213;23;20140;-90
2022/10/19 11:29:45;;;;;;;114.25;31.20;;;14.80;1.00;;;;;;6273009;22;20178;-90
2022/10/19 11:32:20;;;;;;;115.10;31.48;;;14.80;1.00;;;;;;6267161;23;20152;-88
2022/10/19 11:35:07;;;;;;;113.85;31.10;;;14.90;1.00;;;;;;6246604;23;20152;-88
2022/10/19 11:37:45;;;;;;;115.00;31.23;;;15.00;1.00;;;;;;6246627;23;20160;-87
2022/10/19 11:40:19;;;;;;;120.88;32.10;;;15.20;1.00;;;;;;6246611;23;20148;-88
2022/10/19 11:42:57;;;;;;;119.53;31.92;;;15.40;1.00;;;;;;6246464;23;20230;-87
2022/10/19 11:45:42;;;;;;;117.40;31.42;;;15.60;1.00;;;;;;6246148;23;20156;-88
2022/10/19 11:48:33;;;;;;;116.95;31.42;;;15.50;1.00;;;;;;6246526;23;20171;-87
2022/10/19 11:51:06;;;;;;;116.07;31.05;;;15.50;1.00;;;;;;6246836;23;20194;-87
2022/10/19 11:53:41;;;;;;;115.13;31.00;;;15.60;1.00;;;;;;6246074;23;20633;-87
2022/10/19 11:56:13;;;;;;;113.68;30.67;;;15.60;1.00;;;;;;6246408;23;20155;-87
2022/10/19 11:58:50;;;;;;;115.13;31.05;;;15.60;1.00;;;;;;6245957;23;20152;-88
2022/10/19 12:01:27;;;;;;;115.10;31.30;;;15.60;1.00;;;;;;6246447;23;20148;-88
2022/10/19 12:04:20;;;;;;;111.97;30.35;;;15.60;1.00;;;;;;6246440;23;20172;-88
2022/10/19 12:06:56;;;;;;;113.47;31.05;;;15.60;1.00;;;;;;6245879;23;20214;-88
2022/10/19 12:09:34;;;;;;;110.72;30.48;;;15.60;1.00;;;;;;6246255;22;20216;-88
2022/10/19 12:12:21;;;;;;;113.25;30.88;;;15.50;1.00;;;;;;6246233;23;20152;-87
2022/10/19 12:14:51;;;;;;;112.47;30.88;;;15.60;1.00;;;;;;6245433;23;20167;-88
2022/10/19 12:17:24;;;;;;;111.40;30.88;;;15.60;1.00;;;;;;6246193;22;20602;-87
2022/10/19 12:19:55;;;;;;;112.97;30.48;;;15.40;1.00;;;;;;6246120;23;20148;-88
2022/10/19 12:22:27;;;;;;;108.72;30.25;;;15.20;1.00;;;;;;6245799;23;20152;-87
2022/10/19 12:24:57;;;;;;;111.00;30.33;;;15.00;1.00;;;;;;6245702;23;20653;-88
2022/10/19 12:27:31;;;;;;;110.40;30.27;;;14.80;1.00;;;;;;6245674;23;20164;-87
2022/10/19 12:30:04;;;;;;;107.53;30.02;;;14.60;1.00;;;;;;6245725;23;20155;-87
2022/10/19 12:32:38;;;;;;;106.88;30.05;;;14.50;1.00;;;;;;6246374;23;20148;-87
2022/10/19 12:35:16;;;;;;;108.10;30.15;;;14.50;1.00;;;;;;6245838;23;20155;-87
2022/10/19 12:37:52;;;;;;;108.30;30.52;;;14.60;1.00;;;;;;6245212;23;20152;-88
2022/10/19 12:40:27;;;;;;;108.53;30.60;;;14.90;1.00;;;;;;6245955;23;20159;-87
2022/10/19 12:43:00;;;;;;;108.75;30.67;;;15.10;1.00;;;;;;6245961;23;20510;-87
2022/10/19 12:45:31;;;;;;;98.25;29.13;;;15.40;1.00;;;;;;6245989;23;20587;-88
2022/10/19 12:48:21;;;;;;;99.22;29.08;;;15.60;1.00;;;;;;6246186;23;20155;-87
2022/10/19 12:51:06;;;;;;;107.22;29.92;;;15.80;1.00;;;;;;6245707;23;20210;-88
2022/10/19 12:53:38;;;;;;;112.97;30.90;;;15.90;1.00;;;;;;6246039;23;20156;-87
2022/10/19 12:56:07;;;;;;;110.93;30.35;;;15.80;1.00;;;;;;6245864;23;20171;-87
2022/10/19 12:58:40;;;;;;;108.97;30.33;;;15.70;1.00;;;;;;6245787;22;20397;-87
2022/10/19 13:01:09;;;;;;;109.00;30.35;;;15.50;1.00;;;;;;6246017;23;20188;-87
2022/10/19 13:03:39;;;;;;;108.75;30.35;;;15.20;1.00;;;;;;6245855;23;20180;-87
2022/10/19 13:06:11;;;;;;;108.47;30.17;;;15.00;1.00;;;;;;6245588;23;20501;-87
2022/10/19 13:08:43;;;;;;;106.07;29.83;;;14.80;1.00;;;;;;6245537;22;20210;-87
2022/10/19 13:11:14;;;;;;;106.07;29.90;;;14.60;1.00;;;;;;6245588;23;20446;-87
2022/10/19 13:13:55;;;;;;;105.53;29.70;;;14.40;1.00;;;;;;6245677;23;20149;-87
2022/10/19 13:17:01;;;;;;;103.63;29.65;;;14.20;1.00;;;;;;6245916;23;20159;-87
2022/10/19 13:19:28;;;;;;;103.65;29.80;;;14.10;1.00;;;;;;6245442;23;20175;-87
2022/10/19 13:22:24;;;;;;;104.20;30.15;;;14.00;1.00;;;;;;6245156;23;20168;-87